sensor_id;sensor_type;location;lat;lon;timestamp;temperature;humidity
6307;DHT22;3186;54.062;9.962;2023-09-19T00:00:17;18.10;99.90
6307;DHT22;3186;54.062;9.962;2023-09-19T00:02:46;18.10;99.90
6307;DHT22;3186;54.062;9.962;2023-09-19T00:05:12;18.10;99.90
6307;DHT22;3186;54.062;9.962;2023-09-19T00:07:39;18.10;99.90
6307;DHT22;3186;54.062;9.962;2023-09-19T00:10:06;18.00;99.90
6307;DHT22;3186;54.062;9.962;2023-09-19T00:12:35;18.10;99.90
6307;DHT22;3186;54.062;9.962;2023-09-19T00:15:00;18.00;99.90
6307;DHT22;3186;54.062;9.962;2023-09-19T00:17:27;18.00;99.90
6307;DHT22;3186;54.062;9.962;2023-09-19T00:19:56;18.00;99.90
6307;DHT22;3186;54.062;9.962;2023-09-19T00:22:21;18.00;99.90
6307;DHT22;3186;54.062;9.962;2023-09-19T00:24:47;17.90;99.90
6307;DHT22;3186;54.062;9.962;2023-09-19T00:27:12;18.00;99.90
6307;DHT22;3186;54.062;9.962;2023-09-19T00:29:38;18.00;99.90
6307;DHT22;3186;54.062;9.962;2023-09-19T00:32:06;18.00;99.90
6307;DHT22;3186;54.062;9.962;2023-09-19T00:34:32;18.00;99.90
6307;DHT22;3186;54.062;9.962;2023-09-19T00:36:59;18.00;99.90
6307;DHT22;3186;54.062;9.962;2023-09-19T00:39:25;17.90;99.90
6307;DHT22;3186;54.062;9.962;2023-09-19T00:41:51;18.00;99.90
6307;DHT22;3186;54.062;9.962;2023-09-19T00:44:16;17.90;99.90
6307;DHT22;3186;54.062;9.962;2023-09-19T00:46:43;17.90;99.90
6307;DHT22;3186;54.062;9.962;2023-09-19T00:49:09;18.00;99.90
6307;DHT22;3186;54.062;9.962;2023-09-19T00:51:35;18.00;99.90
6307;DHT22;3186;54.062;9.962;2023-09-19T00:54:02;17.90;99.90
6307;DHT22;3186;54.062;9.962;2023-09-19T00:56:29;17.90;99.90
6307;DHT22;3186;54.062;9.962;2023-09-19T00:58:55;17.90;99.90
6307;DHT22;3186;54.062;9.962;2023-09-19T01:01:20;17.90;99.90
6307;DHT22;3186;54.062;9.962;2023-09-19T01:03:46;18.00;99.90
6307;DHT22;3186;54.062;9.962;2023-09-19T01:06:12;17.90;99.90
6307;DHT22;3186;54.062;9.962;2023-09-19T01:08:38;18.00;99.90
6307;DHT22;3186;54.062;9.962;2023-09-19T01:11:35;17.90;99.90
6307;DHT22;3186;54.062;9.962;2023-09-19T01:16:47;17.80;99.90
6307;DHT22;3186;54.062;9.962;2023-09-19T01:19:43;17.80;99.90
6307;DHT22;3186;54.062;9.962;2023-09-19T01:28:14;17.80;99.90
6307;DHT22;3186;54.062;9.962;2023-09-19T01:30:44;17.80;99.90
6307;DHT22;3186;54.062;9.962;2023-09-19T01:33:10;17.90;99.90
6307;DHT22;3186;54.062;9.962;2023-09-19T01:35:40;17.90;99.90
6307;DHT22;3186;54.062;9.962;2023-09-19T01:38:06;17.80;99.90
6307;DHT22;3186;54.062;9.962;2023-09-19T01:40:42;17.90;99.90
6307;DHT22;3186;54.062;9.962;2023-09-19T01:43:17;17.80;99.90
6307;DHT22;3186;54.062;9.962;2023-09-19T01:50:55;17.70;99.90
6307;DHT22;3186;54.062;9.962;2023-09-19T01:53:27;17.70;99.90
6307;DHT22;3186;54.062;9.962;2023-09-19T01:55:57;17.60;99.90
6307;DHT22;3186;54.062;9.962;2023-09-19T01:58:41;17.60;99.90
6307;DHT22;3186;54.062;9.962;2023-09-19T02:01:13;17.70;99.90
6307;DHT22;3186;54.062;9.962;2023-09-19T02:03:41;17.70;99.90
6307;DHT22;3186;54.062;9.962;2023-09-19T02:06:14;17.60;99.90
6307;DHT22;3186;54.062;9.962;2023-09-19T02:08:41;17.70;99.90
6307;DHT22;3186;54.062;9.962;2023-09-19T02:11:09;17.60;99.90
6307;DHT22;3186;54.062;9.962;2023-09-19T02:13:34;17.60;99.90
6307;DHT22;3186;54.062;9.962;2023-09-19T02:16:00;17.60;99.90
6307;DHT22;3186;54.062;9.962;2023-09-19T02:18:26;17.60;99.90
6307;DHT22;3186;54.062;9.962;2023-09-19T02:20:53;17.60;99.90
6307;DHT22;3186;54.062;9.962;2023-09-19T02:23:20;17.60;99.90
6307;DHT22;3186;54.062;9.962;2023-09-19T02:25:55;17.60;99.90
6307;DHT22;3186;54.062;9.962;2023-09-19T02:28:26;17.60;99.90
6307;DHT22;3186;54.062;9.962;2023-09-19T02:30:55;17.50;99.90
6307;DHT22;3186;54.062;9.962;2023-09-19T02:33:21;17.50;99.90
6307;DHT22;3186;54.062;9.962;2023-09-19T02:35:54;17.40;99.90
6307;DHT22;3186;54.062;9.962;2023-09-19T02:38:20;17.40;99.90
6307;DHT22;3186;54.062;9.962;2023-09-19T02:40:50;17.40;99.90
6307;DHT22;3186;54.062;9.962;2023-09-19T02:43:16;17.30;99.90
6307;DHT22;3186;54.062;9.962;2023-09-19T02:45:42;17.30;99.90
6307;DHT22;3186;54.062;9.962;2023-09-19T02:48:08;17.30;99.90
6307;DHT22;3186;54.062;9.962;2023-09-19T02:50:34;17.20;99.90
6307;DHT22;3186;54.062;9.962;2023-09-19T02:53:00;17.30;99.90
6307;DHT22;3186;54.062;9.962;2023-09-19T02:55:25;17.30;99.90
6307;DHT22;3186;54.062;9.962;2023-09-19T02:57:53;17.30;99.90
6307;DHT22;3186;54.062;9.962;2023-09-19T03:00:23;17.20;99.90
6307;DHT22;3186;54.062;9.962;2023-09-19T03:02:55;17.20;99.90
6307;DHT22;3186;54.062;9.962;2023-09-19T03:05:22;17.10;99.90
6307;DHT22;3186;54.062;9.962;2023-09-19T03:07:52;17.20;99.90
6307;DHT22;3186;54.062;9.962;2023-09-19T03:10:20;17.20;99.90
6307;DHT22;3186;54.062;9.962;2023-09-19T03:12:47;17.20;99.90
6307;DHT22;3186;54.062;9.962;2023-09-19T03:15:14;17.20;99.90
6307;DHT22;3186;54.062;9.962;2023-09-19T03:17:47;17.10;99.90
6307;DHT22;3186;54.062;9.962;2023-09-19T03:20:17;17.00;99.90
6307;DHT22;3186;54.062;9.962;2023-09-19T03:22:44;17.00;99.90
6307;DHT22;3186;54.062;9.962;2023-09-19T03:25:10;17.00;99.90
6307;DHT22;3186;54.062;9.962;2023-09-19T03:27:39;17.10;99.90
6307;DHT22;3186;54.062;9.962;2023-09-19T03:30:05;17.10;99.90
6307;DHT22;3186;54.062;9.962;2023-09-19T03:32:35;17.00;99.90
6307;DHT22;3186;54.062;9.962;2023-09-19T03:35:03;17.00;99.90
6307;DHT22;3186;54.062;9.962;2023-09-19T03:37:34;17.10;99.90
6307;DHT22;3186;54.062;9.962;2023-09-19T03:40:01;17.00;99.90
6307;DHT22;3186;54.062;9.962;2023-09-19T03:42:31;16.80;99.90
6307;DHT22;3186;54.062;9.962;2023-09-19T03:44:57;16.90;99.90
6307;DHT22;3186;54.062;9.962;2023-09-19T03:47:23;16.90;99.90
6307;DHT22;3186;54.062;9.962;2023-09-19T03:49:50;16.90;99.90
6307;DHT22;3186;54.062;9.962;2023-09-19T03:52:17;16.70;99.90
6307;DHT22;3186;54.062;9.962;2023-09-19T03:54:43;16.70;99.90
6307;DHT22;3186;54.062;9.962;2023-09-19T03:57:08;16.50;99.90
6307;DHT22;3186;54.062;9.962;2023-09-19T03:59:34;16.60;99.90
6307;DHT22;3186;54.062;9.962;2023-09-19T04:02:03;16.70;99.90
6307;DHT22;3186;54.062;9.962;2023-09-19T04:04:30;16.70;99.90
6307;DHT22;3186;54.062;9.962;2023-09-19T04:06:55;16.70;99.90
6307;DHT22;3186;54.062;9.962;2023-09-19T04:09:21;16.70;99.90
6307;DHT22;3186;54.062;9.962;2023-09-19T04:11:46;16.60;99.90
6307;DHT22;3186;54.062;9.962;2023-09-19T04:14:12;16.60;99.90
6307;DHT22;3186;54.062;9.962;2023-09-19T04:16:38;16.60;99.90
6307;DHT22;3186;54.062;9.962;2023-09-19T04:19:04;16.60;99.90
6307;DHT22;3186;54.062;9.962;2023-09-19T04:21:30;16.70;99.90
6307;DHT22;3186;54.062;9.962;2023-09-19T04:23:56;16.50;99.90
6307;DHT22;3186;54.062;9.962;2023-09-19T04:26:22;16.50;99.90
6307;DHT22;3186;54.062;9.962;2023-09-19T04:28:47;16.50;99.90
6307;DHT22;3186;54.062;9.962;2023-09-19T04:31:13;16.50;99.90
6307;DHT22;3186;54.062;9.962;2023-09-19T04:33:40;16.40;99.90
6307;DHT22;3186;54.062;9.962;2023-09-19T04:36:05;16.50;99.90
6307;DHT22;3186;54.062;9.962;2023-09-19T04:38:33;16.40;99.90
6307;DHT22;3186;54.062;9.962;2023-09-19T04:40:59;16.30;99.90
6307;DHT22;3186;54.062;9.962;2023-09-19T04:43:25;16.20;99.90
6307;DHT22;3186;54.062;9.962;2023-09-19T04:45:51;16.10;99.90
6307;DHT22;3186;54.062;9.962;2023-09-19T04:48:19;16.20;99.90
6307;DHT22;3186;54.062;9.962;2023-09-19T04:50:45;16.10;99.90
6307;DHT22;3186;54.062;9.962;2023-09-19T04:53:10;16.20;99.90
6307;DHT22;3186;54.062;9.962;2023-09-19T04:55:36;16.00;99.90
6307;DHT22;3186;54.062;9.962;2023-09-19T04:58:02;16.00;99.90
6307;DHT22;3186;54.062;9.962;2023-09-19T05:00:28;16.10;99.90
6307;DHT22;3186;54.062;9.962;2023-09-19T05:02:56;16.00;99.90
6307;DHT22;3186;54.062;9.962;2023-09-19T05:05:22;15.90;99.90
6307;DHT22;3186;54.062;9.962;2023-09-19T05:07:49;15.90;99.90
6307;DHT22;3186;54.062;9.962;2023-09-19T05:10:16;16.00;99.90
6307;DHT22;3186;54.062;9.962;2023-09-19T05:12:45;16.00;99.90
6307;DHT22;3186;54.062;9.962;2023-09-19T05:15:13;16.00;99.90
6307;DHT22;3186;54.062;9.962;2023-09-19T05:17:50;15.90;99.90
6307;DHT22;3186;54.062;9.962;2023-09-19T05:20:17;16.00;99.90
6307;DHT22;3186;54.062;9.962;2023-09-19T05:23:06;16.00;99.90
6307;DHT22;3186;54.062;9.962;2023-09-19T05:25:38;15.80;99.90
6307;DHT22;3186;54.062;9.962;2023-09-19T05:28:05;15.90;99.90
6307;DHT22;3186;54.062;9.962;2023-09-19T05:30:32;15.90;99.90
6307;DHT22;3186;54.062;9.962;2023-09-19T05:32:58;15.90;99.90
6307;DHT22;3186;54.062;9.962;2023-09-19T05:35:24;15.80;99.90
6307;DHT22;3186;54.062;9.962;2023-09-19T05:37:51;15.80;99.90
6307;DHT22;3186;54.062;9.962;2023-09-19T05:40:20;15.90;99.90
6307;DHT22;3186;54.062;9.962;2023-09-19T05:42:46;15.80;99.90
6307;DHT22;3186;54.062;9.962;2023-09-19T05:45:12;15.80;99.90
6307;DHT22;3186;54.062;9.962;2023-09-19T05:47:42;15.80;99.90
6307;DHT22;3186;54.062;9.962;2023-09-19T05:50:09;15.80;99.90
6307;DHT22;3186;54.062;9.962;2023-09-19T05:52:41;15.80;99.90
6307;DHT22;3186;54.062;9.962;2023-09-19T05:55:08;15.80;99.90
6307;DHT22;3186;54.062;9.962;2023-09-19T05:57:37;15.70;99.90
6307;DHT22;3186;54.062;9.962;2023-09-19T06:00:08;15.70;99.90
6307;DHT22;3186;54.062;9.962;2023-09-19T06:02:40;15.80;99.90
6307;DHT22;3186;54.062;9.962;2023-09-19T06:05:06;15.60;99.90
6307;DHT22;3186;54.062;9.962;2023-09-19T06:07:35;15.70;99.90
6307;DHT22;3186;54.062;9.962;2023-09-19T06:10:06;15.70;99.90
6307;DHT22;3186;54.062;9.962;2023-09-19T06:12:42;15.70;99.90
6307;DHT22;3186;54.062;9.962;2023-09-19T06:15:11;15.70;99.90
6307;DHT22;3186;54.062;9.962;2023-09-19T06:17:48;15.70;99.90
6307;DHT22;3186;54.062;9.962;2023-09-19T06:20:14;15.70;99.90
6307;DHT22;3186;54.062;9.962;2023-09-19T06:22:44;15.60;99.90
6307;DHT22;3186;54.062;9.962;2023-09-19T06:25:10;15.70;99.90
6307;DHT22;3186;54.062;9.962;2023-09-19T06:27:51;15.50;99.90
6307;DHT22;3186;54.062;9.962;2023-09-19T06:30:21;15.60;99.90
6307;DHT22;3186;54.062;9.962;2023-09-19T06:32:49;15.60;99.90
6307;DHT22;3186;54.062;9.962;2023-09-19T06:35:16;15.70;99.90
6307;DHT22;3186;54.062;9.962;2023-09-19T06:37:42;15.70;99.90
6307;DHT22;3186;54.062;9.962;2023-09-19T06:40:10;15.70;99.90
6307;DHT22;3186;54.062;9.962;2023-09-19T06:42:43;15.70;99.90
6307;DHT22;3186;54.062;9.962;2023-09-19T06:45:11;15.70;99.90
6307;DHT22;3186;54.062;9.962;2023-09-19T06:47:39;15.60;99.90
6307;DHT22;3186;54.062;9.962;2023-09-19T06:50:05;15.60;99.90
6307;DHT22;3186;54.062;9.962;2023-09-19T06:52:32;15.70;99.90
6307;DHT22;3186;54.062;9.962;2023-09-19T06:54:58;15.70;99.90
6307;DHT22;3186;54.062;9.962;2023-09-19T06:57:24;15.70;99.90
6307;DHT22;3186;54.062;9.962;2023-09-19T06:59:50;15.70;99.90
6307;DHT22;3186;54.062;9.962;2023-09-19T07:02:15;15.70;99.90
6307;DHT22;3186;54.062;9.962;2023-09-19T07:04:41;15.70;99.90
6307;DHT22;3186;54.062;9.962;2023-09-19T07:07:07;15.80;99.90
6307;DHT22;3186;54.062;9.962;2023-09-19T07:09:34;15.70;99.90
6307;DHT22;3186;54.062;9.962;2023-09-19T07:12:00;15.70;99.90
6307;DHT22;3186;54.062;9.962;2023-09-19T07:14:26;15.80;99.90
6307;DHT22;3186;54.062;9.962;2023-09-19T07:16:52;15.80;99.90
6307;DHT22;3186;54.062;9.962;2023-09-19T07:19:18;15.80;99.90
6307;DHT22;3186;54.062;9.962;2023-09-19T07:21:43;15.90;99.90
6307;DHT22;3186;54.062;9.962;2023-09-19T07:24:09;15.90;99.90
6307;DHT22;3186;54.062;9.962;2023-09-19T07:26:35;15.90;99.90
6307;DHT22;3186;54.062;9.962;2023-09-19T07:29:01;15.90;99.90
6307;DHT22;3186;54.062;9.962;2023-09-19T07:31:29;16.00;99.90
6307;DHT22;3186;54.062;9.962;2023-09-19T07:33:56;16.00;99.90
6307;DHT22;3186;54.062;9.962;2023-09-19T07:36:21;16.00;99.90
6307;DHT22;3186;54.062;9.962;2023-09-19T07:38:49;16.00;99.90
6307;DHT22;3186;54.062;9.962;2023-09-19T07:41:15;16.00;99.90
6307;DHT22;3186;54.062;9.962;2023-09-19T07:43:41;16.00;99.90
6307;DHT22;3186;54.062;9.962;2023-09-19T07:46:07;16.10;99.90
6307;DHT22;3186;54.062;9.962;2023-09-19T07:48:37;16.10;99.90
6307;DHT22;3186;54.062;9.962;2023-09-19T07:51:08;16.10;99.90
6307;DHT22;3186;54.062;9.962;2023-09-19T07:53:35;16.10;99.90
6307;DHT22;3186;54.062;9.962;2023-09-19T07:56:09;17.00;99.90
6307;DHT22;3186;54.062;9.962;2023-09-19T07:58:35;16.20;99.90
6307;DHT22;3186;54.062;9.962;2023-09-19T08:01:09;16.20;99.90
6307;DHT22;3186;54.062;9.962;2023-09-19T08:03:36;16.10;99.90
6307;DHT22;3186;54.062;9.962;2023-09-19T08:06:06;16.20;99.90
6307;DHT22;3186;54.062;9.962;2023-09-19T08:08:35;16.20;99.90
6307;DHT22;3186;54.062;9.962;2023-09-19T08:11:05;16.20;99.90
6307;DHT22;3186;54.062;9.962;2023-09-19T08:13:39;16.30;99.90
6307;DHT22;3186;54.062;9.962;2023-09-19T08:16:14;16.30;99.90
6307;DHT22;3186;54.062;9.962;2023-09-19T08:18:41;16.30;99.90
6307;DHT22;3186;54.062;9.962;2023-09-19T08:21:07;16.30;99.90
6307;DHT22;3186;54.062;9.962;2023-09-19T08:23:37;16.30;99.90
6307;DHT22;3186;54.062;9.962;2023-09-19T08:26:04;16.30;99.90
6307;DHT22;3186;54.062;9.962;2023-09-19T08:28:32;16.40;99.90
6307;DHT22;3186;54.062;9.962;2023-09-19T08:31:03;16.40;99.90
6307;DHT22;3186;54.062;9.962;2023-09-19T08:33:34;16.40;99.90
6307;DHT22;3186;54.062;9.962;2023-09-19T08:36:01;16.50;99.90
6307;DHT22;3186;54.062;9.962;2023-09-19T08:38:31;16.60;99.90
6307;DHT22;3186;54.062;9.962;2023-09-19T08:40:59;16.50;99.90
6307;DHT22;3186;54.062;9.962;2023-09-19T08:43:27;16.50;99.90
6307;DHT22;3186;54.062;9.962;2023-09-19T08:46:12;16.60;99.90
6307;DHT22;3186;54.062;9.962;2023-09-19T08:49:04;16.60;99.90
6307;DHT22;3186;54.062;9.962;2023-09-19T08:51:42;16.60;99.90
6307;DHT22;3186;54.062;9.962;2023-09-19T08:54:30;16.60;99.90
6307;DHT22;3186;54.062;9.962;2023-09-19T08:57:00;16.60;99.90
6307;DHT22;3186;54.062;9.962;2023-09-19T08:59:29;16.80;99.90
6307;DHT22;3186;54.062;9.962;2023-09-19T09:01:56;16.70;99.90
6307;DHT22;3186;54.062;9.962;2023-09-19T09:04:22;16.70;99.90
6307;DHT22;3186;54.062;9.962;2023-09-19T09:06:49;16.70;99.90
6307;DHT22;3186;54.062;9.962;2023-09-19T09:09:17;16.60;99.90
6307;DHT22;3186;54.062;9.962;2023-09-19T09:11:42;16.70;99.90
6307;DHT22;3186;54.062;9.962;2023-09-19T09:14:09;16.70;99.90
6307;DHT22;3186;54.062;9.962;2023-09-19T09:16:35;16.70;99.90
6307;DHT22;3186;54.062;9.962;2023-09-19T09:19:00;16.80;99.90
6307;DHT22;3186;54.062;9.962;2023-09-19T09:21:27;16.80;99.90
6307;DHT22;3186;54.062;9.962;2023-09-19T09:23:54;16.90;99.90
6307;DHT22;3186;54.062;9.962;2023-09-19T09:29:04;16.90;99.90
6307;DHT22;3186;54.062;9.962;2023-09-19T09:31:30;17.00;99.90
6307;DHT22;3186;54.062;9.962;2023-09-19T09:33:57;17.00;99.90
6307;DHT22;3186;54.062;9.962;2023-09-19T09:36:36;17.00;99.90
6307;DHT22;3186;54.062;9.962;2023-09-19T09:39:03;17.00;99.90
6307;DHT22;3186;54.062;9.962;2023-09-19T09:41:49;17.20;99.90
6307;DHT22;3186;54.062;9.962;2023-09-19T09:44:16;17.20;99.90
6307;DHT22;3186;54.062;9.962;2023-09-19T09:46:47;17.20;99.90
6307;DHT22;3186;54.062;9.962;2023-09-19T09:49:27;17.40;99.90
6307;DHT22;3186;54.062;9.962;2023-09-19T09:54:31;17.40;99.90
6307;DHT22;3186;54.062;9.962;2023-09-19T09:57:08;17.50;99.90
6307;DHT22;3186;54.062;9.962;2023-09-19T09:59:53;17.40;99.90
6307;DHT22;3186;54.062;9.962;2023-09-19T10:02:29;17.60;99.90
6307;DHT22;3186;54.062;9.962;2023-09-19T10:04:58;17.50;99.90
6307;DHT22;3186;54.062;9.962;2023-09-19T10:07:32;17.70;99.90
6307;DHT22;3186;54.062;9.962;2023-09-19T10:10:05;17.80;99.90
6307;DHT22;3186;54.062;9.962;2023-09-19T10:12:48;17.70;99.90
6307;DHT22;3186;54.062;9.962;2023-09-19T10:15:17;17.80;99.90
6307;DHT22;3186;54.062;9.962;2023-09-19T10:17:44;17.70;99.90
6307;DHT22;3186;54.062;9.962;2023-09-19T10:20:13;17.70;99.90
6307;DHT22;3186;54.062;9.962;2023-09-19T10:22:59;17.80;99.90
6307;DHT22;3186;54.062;9.962;2023-09-19T10:25:27;17.80;99.90
6307;DHT22;3186;54.062;9.962;2023-09-19T10:28:00;17.70;99.90
6307;DHT22;3186;54.062;9.962;2023-09-19T10:30:32;17.70;99.90
6307;DHT22;3186;54.062;9.962;2023-09-19T10:33:03;17.80;99.90
6307;DHT22;3186;54.062;9.962;2023-09-19T10:35:29;17.90;99.90
6307;DHT22;3186;54.062;9.962;2023-09-19T10:38:00;18.00;99.90
6307;DHT22;3186;54.062;9.962;2023-09-19T10:40:27;18.10;99.90
6307;DHT22;3186;54.062;9.962;2023-09-19T10:43:05;18.20;99.90
6307;DHT22;3186;54.062;9.962;2023-09-19T10:45:32;18.30;99.90
6307;DHT22;3186;54.062;9.962;2023-09-19T10:47:59;18.20;99.90
6307;DHT22;3186;54.062;9.962;2023-09-19T10:50:28;18.20;99.90
6307;DHT22;3186;54.062;9.962;2023-09-19T10:53:00;18.40;99.90
6307;DHT22;3186;54.062;9.962;2023-09-19T10:55:31;18.40;99.90
6307;DHT22;3186;54.062;9.962;2023-09-19T10:57:58;18.30;99.90
6307;DHT22;3186;54.062;9.962;2023-09-19T11:00:58;18.50;99.90
6307;DHT22;3186;54.062;9.962;2023-09-19T11:03:41;18.60;99.90
6307;DHT22;3186;54.062;9.962;2023-09-19T11:06:15;18.50;99.90
6307;DHT22;3186;54.062;9.962;2023-09-19T11:09:01;18.50;99.90
6307;DHT22;3186;54.062;9.962;2023-09-19T11:30:42;19.00;99.90
6307;DHT22;3186;54.062;9.962;2023-09-19T11:33:25;19.00;99.90
6307;DHT22;3186;54.062;9.962;2023-09-19T11:36:07;19.10;99.90
6307;DHT22;3186;54.062;9.962;2023-09-19T11:46:26;19.20;99.90
6307;DHT22;3186;54.062;9.962;2023-09-19T11:48:54;19.50;99.90
6307;DHT22;3186;54.062;9.962;2023-09-19T11:51:21;19.40;99.90
6307;DHT22;3186;54.062;9.962;2023-09-19T11:53:50;19.20;99.90
6307;DHT22;3186;54.062;9.962;2023-09-19T11:56:24;19.40;99.90
6307;DHT22;3186;54.062;9.962;2023-09-19T11:58:52;19.30;99.90
6307;DHT22;3186;54.062;9.962;2023-09-19T12:01:22;19.20;99.90
6307;DHT22;3186;54.062;9.962;2023-09-19T12:03:54;19.50;99.90
6307;DHT22;3186;54.062;9.962;2023-09-19T12:06:20;19.60;99.90
6307;DHT22;3186;54.062;9.962;2023-09-19T12:08:47;19.60;99.90
6307;DHT22;3186;54.062;9.962;2023-09-19T12:11:15;19.50;99.90
6307;DHT22;3186;54.062;9.962;2023-09-19T12:13:45;19.60;99.90
6307;DHT22;3186;54.062;9.962;2023-09-19T12:16:16;19.60;99.90
6307;DHT22;3186;54.062;9.962;2023-09-19T12:18:45;19.50;99.90
6307;DHT22;3186;54.062;9.962;2023-09-19T12:21:23;19.60;99.90
6307;DHT22;3186;54.062;9.962;2023-09-19T12:24:11;19.60;99.90
6307;DHT22;3186;54.062;9.962;2023-09-19T12:26:45;19.60;99.90
6307;DHT22;3186;54.062;9.962;2023-09-19T12:29:19;19.60;99.90
6307;DHT22;3186;54.062;9.962;2023-09-19T12:32:03;19.60;99.90
6307;DHT22;3186;54.062;9.962;2023-09-19T12:34:30;19.80;99.90
6307;DHT22;3186;54.062;9.962;2023-09-19T12:39:45;19.70;99.90
6307;DHT22;3186;54.062;9.962;2023-09-19T12:42:24;19.50;99.90
6307;DHT22;3186;54.062;9.962;2023-09-19T12:44:53;19.60;99.90
6307;DHT22;3186;54.062;9.962;2023-09-19T12:47:23;19.70;99.90
6307;DHT22;3186;54.062;9.962;2023-09-19T12:50:11;19.70;99.90
6307;DHT22;3186;54.062;9.962;2023-09-19T12:52:48;19.70;99.90
6307;DHT22;3186;54.062;9.962;2023-09-19T12:55:24;19.70;99.90
6307;DHT22;3186;54.062;9.962;2023-09-19T13:00:32;20.00;99.90
6307;DHT22;3186;54.062;9.962;2023-09-19T13:03:24;20.00;99.90
6307;DHT22;3186;54.062;9.962;2023-09-19T13:06:00;19.80;99.90
6307;DHT22;3186;54.062;9.962;2023-09-19T13:08:37;19.90;99.90
6307;DHT22;3186;54.062;9.962;2023-09-19T13:13:42;19.90;99.90
6307;DHT22;3186;54.062;9.962;2023-09-19T13:16:10;19.90;99.90
6307;DHT22;3186;54.062;9.962;2023-09-19T13:21:12;20.10;99.90
6307;DHT22;3186;54.062;9.962;2023-09-19T13:23:50;20.10;99.90
6307;DHT22;3186;54.062;9.962;2023-09-19T13:26:16;20.20;99.90
6307;DHT22;3186;54.062;9.962;2023-09-19T13:28:41;20.10;99.90
6307;DHT22;3186;54.062;9.962;2023-09-19T13:31:08;20.00;99.90
6307;DHT22;3186;54.062;9.962;2023-09-19T13:33:43;20.00;99.90
6307;DHT22;3186;54.062;9.962;2023-09-19T13:36:08;20.00;99.90
6307;DHT22;3186;54.062;9.962;2023-09-19T13:38:35;20.10;99.90
6307;DHT22;3186;54.062;9.962;2023-09-19T13:41:00;20.20;99.90
6307;DHT22;3186;54.062;9.962;2023-09-19T13:43:27;20.00;99.90
6307;DHT22;3186;54.062;9.962;2023-09-19T13:45:54;20.10;99.90
6307;DHT22;3186;54.062;9.962;2023-09-19T13:48:20;20.10;99.90
6307;DHT22;3186;54.062;9.962;2023-09-19T13:50:48;20.20;99.90
6307;DHT22;3186;54.062;9.962;2023-09-19T13:53:14;20.20;99.90
6307;DHT22;3186;54.062;9.962;2023-09-19T13:55:39;20.30;99.90
6307;DHT22;3186;54.062;9.962;2023-09-19T13:58:05;20.20;99.90
6307;DHT22;3186;54.062;9.962;2023-09-19T14:00:32;20.10;99.90
6307;DHT22;3186;54.062;9.962;2023-09-19T14:03:00;20.30;99.90
6307;DHT22;3186;54.062;9.962;2023-09-19T14:05:27;20.20;99.90
6307;DHT22;3186;54.062;9.962;2023-09-19T14:07:53;20.10;99.90
6307;DHT22;3186;54.062;9.962;2023-09-19T14:10:21;20.20;99.90
6307;DHT22;3186;54.062;9.962;2023-09-19T14:12:47;20.30;99.90
6307;DHT22;3186;54.062;9.962;2023-09-19T14:15:13;20.40;99.90
6307;DHT22;3186;54.062;9.962;2023-09-19T14:17:39;20.20;99.90
6307;DHT22;3186;54.062;9.962;2023-09-19T14:20:08;20.20;99.90
6307;DHT22;3186;54.062;9.962;2023-09-19T14:22:36;20.10;95.40
6307;DHT22;3186;54.062;9.962;2023-09-19T14:25:03;20.10;99.90
6307;DHT22;3186;54.062;9.962;2023-09-19T14:27:29;20.00;99.90
6307;DHT22;3186;54.062;9.962;2023-09-19T14:29:55;20.10;99.90
6307;DHT22;3186;54.062;9.962;2023-09-19T14:32:22;20.00;99.90
6307;DHT22;3186;54.062;9.962;2023-09-19T14:34:48;19.90;99.90
6307;DHT22;3186;54.062;9.962;2023-09-19T14:37:14;19.90;99.90
6307;DHT22;3186;54.062;9.962;2023-09-19T14:39:41;20.00;99.90
6307;DHT22;3186;54.062;9.962;2023-09-19T14:42:10;19.90;99.90
6307;DHT22;3186;54.062;9.962;2023-09-19T14:44:36;19.80;99.90
6307;DHT22;3186;54.062;9.962;2023-09-19T14:47:04;19.80;99.90
6307;DHT22;3186;54.062;9.962;2023-09-19T14:49:33;19.90;99.90
6307;DHT22;3186;54.062;9.962;2023-09-19T14:52:00;19.70;99.90
6307;DHT22;3186;54.062;9.962;2023-09-19T14:54:29;19.60;99.90
6307;DHT22;3186;54.062;9.962;2023-09-19T14:56:56;19.70;99.90
6307;DHT22;3186;54.062;9.962;2023-09-19T14:59:32;19.60;99.90
6307;DHT22;3186;54.062;9.962;2023-09-19T15:01:59;19.60;99.90
6307;DHT22;3186;54.062;9.962;2023-09-19T15:04:26;19.50;99.90
6307;DHT22;3186;54.062;9.962;2023-09-19T15:06:53;19.60;99.90
6307;DHT22;3186;54.062;9.962;2023-09-19T15:09:23;19.60;99.90
6307;DHT22;3186;54.062;9.962;2023-09-19T15:11:55;19.60;99.90
6307;DHT22;3186;54.062;9.962;2023-09-19T15:14:21;19.60;99.90
6307;DHT22;3186;54.062;9.962;2023-09-19T15:16:48;19.60;99.90
6307;DHT22;3186;54.062;9.962;2023-09-19T15:19:14;19.40;99.90
6307;DHT22;3186;54.062;9.962;2023-09-19T15:21:41;19.40;99.90
6307;DHT22;3186;54.062;9.962;2023-09-19T15:24:07;19.40;99.90
6307;DHT22;3186;54.062;9.962;2023-09-19T15:26:36;19.30;99.90
6307;DHT22;3186;54.062;9.962;2023-09-19T15:29:08;19.20;99.90
6307;DHT22;3186;54.062;9.962;2023-09-19T15:31:35;19.30;99.90
6307;DHT22;3186;54.062;9.962;2023-09-19T15:34:04;19.30;99.90
6307;DHT22;3186;54.062;9.962;2023-09-19T15:36:30;19.20;99.90
6307;DHT22;3186;54.062;9.962;2023-09-19T15:39:05;19.20;99.90
6307;DHT22;3186;54.062;9.962;2023-09-19T15:41:38;19.10;99.90
6307;DHT22;3186;54.062;9.962;2023-09-19T15:44:10;19.00;99.90
6307;DHT22;3186;54.062;9.962;2023-09-19T15:46:36;18.90;99.90
6307;DHT22;3186;54.062;9.962;2023-09-19T15:49:03;19.00;99.90
6307;DHT22;3186;54.062;9.962;2023-09-19T15:51:29;19.00;99.90
6307;DHT22;3186;54.062;9.962;2023-09-19T15:53:55;18.90;99.90
6307;DHT22;3186;54.062;9.962;2023-09-19T15:56:22;18.90;99.90
6307;DHT22;3186;54.062;9.962;2023-09-19T15:58:49;18.80;99.90
6307;DHT22;3186;54.062;9.962;2023-09-19T16:01:15;18.80;99.90
6307;DHT22;3186;54.062;9.962;2023-09-19T16:03:52;18.80;99.90
6307;DHT22;3186;54.062;9.962;2023-09-19T16:06:27;18.70;99.90
6307;DHT22;3186;54.062;9.962;2023-09-19T16:08:56;18.70;99.90
6307;DHT22;3186;54.062;9.962;2023-09-19T16:11:26;18.70;99.90
6307;DHT22;3186;54.062;9.962;2023-09-19T16:13:52;18.60;99.90
6307;DHT22;3186;54.062;9.962;2023-09-19T16:16:19;18.60;99.90
6307;DHT22;3186;54.062;9.962;2023-09-19T16:18:53;18.60;99.90
6307;DHT22;3186;54.062;9.962;2023-09-19T16:21:27;18.60;99.90
6307;DHT22;3186;54.062;9.962;2023-09-19T16:23:54;18.50;99.90
6307;DHT22;3186;54.062;9.962;2023-09-19T16:26:20;18.60;99.90
6307;DHT22;3186;54.062;9.962;2023-09-19T16:28:47;18.60;99.90
6307;DHT22;3186;54.062;9.962;2023-09-19T16:31:13;18.50;99.90
6307;DHT22;3186;54.062;9.962;2023-09-19T16:33:40;18.50;99.90
6307;DHT22;3186;54.062;9.962;2023-09-19T16:36:10;18.60;99.90
6307;DHT22;3186;54.062;9.962;2023-09-19T16:38:37;18.70;99.90
6307;DHT22;3186;54.062;9.962;2023-09-19T16:41:03;18.60;99.90
6307;DHT22;3186;54.062;9.962;2023-09-19T16:43:33;18.60;99.90
6307;DHT22;3186;54.062;9.962;2023-09-19T16:46:04;18.60;99.90
6307;DHT22;3186;54.062;9.962;2023-09-19T16:48:31;18.60;99.90
6307;DHT22;3186;54.062;9.962;2023-09-19T16:51:04;18.50;99.90
6307;DHT22;3186;54.062;9.962;2023-09-19T16:53:31;18.50;99.90
6307;DHT22;3186;54.062;9.962;2023-09-19T16:56:11;18.50;99.90
6307;DHT22;3186;54.062;9.962;2023-09-19T16:58:41;18.50;99.90
6307;DHT22;3186;54.062;9.962;2023-09-19T17:01:08;18.50;99.90
6307;DHT22;3186;54.062;9.962;2023-09-19T17:03:38;18.50;99.90
6307;DHT22;3186;54.062;9.962;2023-09-19T17:06:06;18.40;99.90
6307;DHT22;3186;54.062;9.962;2023-09-19T17:08:32;18.40;99.90
6307;DHT22;3186;54.062;9.962;2023-09-19T17:11:04;18.50;99.90